createdAt,value
2022-12-19T00:01:54.064Z,6.49
2022-12-19T00:04:20.641Z,6.53
2022-12-19T00:06:47.089Z,6.58
2022-12-19T00:09:13.852Z,6.64
2022-12-19T00:11:40.786Z,6.64
2022-12-19T00:14:10.244Z,6.66
2022-12-19T00:16:37.121Z,6.72
2022-12-19T00:19:03.807Z,6.77
2022-12-19T00:21:35.107Z,6.79
2022-12-19T00:24:03.403Z,6.78
2022-12-19T00:26:33.508Z,6.87
2022-12-19T00:29:05.402Z,6.90
2022-12-19T00:31:36.509Z,6.90
2022-12-19T00:34:03.366Z,6.96
2022-12-19T00:36:33.116Z,6.93
2022-12-19T00:39:02.034Z,7.02
2022-12-19T00:41:36.463Z,7.03
2022-12-19T00:44:06.102Z,7.01
2022-12-19T00:46:34.952Z,7.11
2022-12-19T00:49:01.698Z,7.14
2022-12-19T00:51:32.564Z,7.10
2022-12-19T00:53:59.551Z,7.18
2022-12-19T00:56:33.496Z,7.20
2022-12-19T00:59:06.128Z,7.23
2022-12-19T01:01:36.383Z,7.26
2022-12-19T01:04:27.872Z,7.29
2022-12-19T01:06:51.090Z,7.32
2022-12-19T01:09:18.039Z,7.34
2022-12-19T01:11:44.534Z,7.36
2022-12-19T01:14:17.408Z,7.35
2022-12-19T01:16:47.787Z,7.46
2022-12-19T01:19:14.337Z,7.49
2022-12-19T01:21:40.758Z,7.53
2022-12-19T01:24:07.917Z,7.56
2022-12-19T01:26:34.372Z,7.59
2022-12-19T01:29:00.832Z,7.61
2022-12-19T01:31:27.693Z,7.65
2022-12-19T01:33:55.190Z,7.69
2022-12-19T01:36:22.923Z,7.73
2022-12-19T01:38:49.350Z,7.75
2022-12-19T01:41:15.804Z,7.81
2022-12-19T01:44:04.026Z,7.82
2022-12-19T01:46:37.145Z,7.87
2022-12-19T01:49:06.250Z,7.92
2022-12-19T01:51:41.346Z,7.89
2022-12-19T01:54:11.672Z,7.98
2022-12-19T01:56:45.886Z,8.04
2022-12-19T01:59:19.119Z,8.08
2022-12-19T02:01:51.746Z,8.12
2022-12-19T02:04:23.513Z,8.18
2022-12-19T02:06:51.808Z,8.21
2022-12-19T02:09:23.647Z,8.27
2022-12-19T02:11:51.680Z,8.30
2022-12-19T02:14:18.596Z,8.34
2022-12-19T02:16:57.539Z,8.33
2022-12-19T02:20:02.485Z,8.44
2022-12-19T02:22:52.195Z,8.50
2022-12-19T02:25:54.843Z,8.57
2022-12-19T02:28:42.885Z,8.64
2022-12-19T02:31:18.415Z,8.74
2022-12-19T02:33:56.414Z,8.83
2022-12-19T02:36:43.501Z,8.91
2022-12-19T02:39:21.199Z,8.97
2022-12-19T02:41:54.849Z,9.12
2022-12-19T02:44:33.683Z,9.20
2022-12-19T02:47:03.016Z,9.29
2022-12-19T02:49:30.955Z,9.37
2022-12-19T02:52:20.360Z,9.39
2022-12-19T02:54:53.369Z,9.42
2022-12-19T02:57:33.563Z,9.57
2022-12-19T03:00:10.091Z,9.60
2022-12-19T03:03:05.981Z,9.74
2022-12-19T03:05:50.476Z,9.80
2022-12-19T03:08:40.652Z,9.87
2022-12-19T03:11:11.597Z,9.93
2022-12-19T03:13:51.284Z,10.00
2022-12-19T03:16:17.849Z,10.06
2022-12-19T03:18:44.609Z,10.09
2022-12-19T03:21:34.484Z,10.16
2022-12-19T03:24:01.921Z,10.21
2022-12-19T03:26:34.478Z,10.24
2022-12-19T03:29:09.390Z,10.30
2022-12-19T03:31:38.488Z,10.29
2022-12-19T03:34:20.159Z,10.38
2022-12-19T03:36:48.369Z,10.46
2022-12-19T03:39:17.081Z,10.51
2022-12-19T03:41:44.398Z,10.53
2022-12-19T03:44:14.129Z,10.55
2022-12-19T03:46:46.834Z,10.54
2022-12-19T03:49:13.587Z,10.62
2022-12-19T03:51:59.193Z,10.58
2022-12-19T03:54:30.495Z,10.63
2022-12-19T03:57:10.261Z,10.72
2022-12-19T03:59:57.402Z,10.72
2022-12-19T04:02:24.852Z,10.78
2022-12-19T04:04:57.139Z,10.81
2022-12-19T04:07:24.592Z,10.82
2022-12-19T04:09:54.074Z,10.87
2022-12-19T04:12:29.038Z,10.86
2022-12-19T04:14:55.589Z,10.95
2022-12-19T04:17:40.713Z,10.97
2022-12-19T04:20:11.141Z,11.01
2022-12-19T04:22:56.572Z,11.02
2022-12-19T04:25:31.413Z,11.04
2022-12-19T04:28:03.224Z,11.06
2022-12-19T04:30:29.842Z,11.09
2022-12-19T04:33:03.030Z,11.11
2022-12-19T04:35:29.537Z,11.13
2022-12-19T04:37:56.122Z,11.17
2022-12-19T04:40:22.625Z,11.19
2022-12-19T04:42:49.097Z,11.21
2022-12-19T04:45:15.596Z,11.22
2022-12-19T04:47:42.436Z,11.24
2022-12-19T04:50:09.487Z,11.25
2022-12-19T04:52:35.982Z,11.28
2022-12-19T04:55:02.418Z,11.27
2022-12-19T04:57:30.488Z,11.23
2022-12-19T04:59:57.188Z,11.30
2022-12-19T05:02:24.072Z,11.34
2022-12-19T05:04:51.484Z,11.36
2022-12-19T05:07:18.011Z,11.36
2022-12-19T05:09:44.473Z,11.38
2022-12-19T05:12:10.943Z,11.40
2022-12-19T05:14:37.387Z,11.41
2022-12-19T05:17:03.908Z,11.43
2022-12-19T05:19:30.313Z,11.44
2022-12-19T05:21:57.259Z,11.45
2022-12-19T05:24:23.685Z,11.41
2022-12-19T05:26:50.552Z,11.44
2022-12-19T05:29:17.469Z,11.45
2022-12-19T05:31:44.100Z,11.47
2022-12-19T05:34:10.934Z,11.49
2022-12-19T05:36:37.592Z,11.50
2022-12-19T05:39:04.145Z,11.50
2022-12-19T05:41:30.687Z,11.50
2022-12-19T05:43:57.150Z,11.51
2022-12-19T05:46:24.620Z,11.52
2022-12-19T05:48:51.540Z,11.53
2022-12-19T05:51:18.744Z,11.54
2022-12-19T05:53:45.283Z,11.52
2022-12-19T05:56:17.554Z,11.47
2022-12-19T05:58:44.968Z,11.53
2022-12-19T06:01:16.051Z,11.52
2022-12-19T06:03:43.425Z,11.53
2022-12-19T06:06:15.515Z,11.52
2022-12-19T06:08:42.347Z,11.52
2022-12-19T06:11:10.347Z,11.52
2022-12-19T06:13:37.474Z,11.51
2022-12-19T06:16:10.547Z,11.50
2022-12-19T06:18:41.586Z,11.51
2022-12-19T06:21:16.879Z,11.44
2022-12-19T06:23:44.268Z,11.50
2022-12-19T06:26:18.572Z,11.52
2022-12-19T06:28:46.146Z,11.50
2022-12-19T06:31:13.530Z,11.50
2022-12-19T06:33:40.324Z,11.50
2022-12-19T06:36:11.454Z,11.46
2022-12-19T06:38:38.133Z,11.52
2022-12-19T06:41:04.804Z,11.54
2022-12-19T06:43:31.265Z,11.54
2022-12-19T06:45:57.733Z,11.56
2022-12-19T06:48:24.253Z,11.58
2022-12-19T06:50:50.672Z,11.58
2022-12-19T06:53:17.155Z,11.60
2022-12-19T06:55:46.977Z,11.63
2022-12-19T06:58:13.725Z,11.64
2022-12-19T07:00:40.236Z,11.64
2022-12-19T07:03:10.600Z,11.58
2022-12-19T07:05:37.143Z,11.66
2022-12-19T07:08:04.273Z,11.67
2022-12-19T07:10:31.047Z,11.65
2022-12-19T07:12:57.672Z,11.67
2022-12-19T07:15:24.705Z,11.70
2022-12-19T07:17:51.635Z,11.72
2022-12-19T07:20:19.841Z,11.66
2022-12-19T07:22:47.458Z,11.73
2022-12-19T07:25:14.416Z,11.73
2022-12-19T07:27:40.852Z,11.75
2022-12-19T07:30:08.006Z,11.76
2022-12-19T07:32:34.989Z,11.77
2022-12-19T07:35:01.449Z,11.76
2022-12-19T07:37:28.094Z,11.80
2022-12-19T07:39:54.534Z,11.80
2022-12-19T07:42:20.954Z,11.82
2022-12-19T07:44:47.393Z,11.83
2022-12-19T07:47:13.910Z,11.84
2022-12-19T07:49:40.463Z,11.85
2022-12-19T07:52:06.975Z,11.87
2022-12-19T07:54:33.446Z,11.88
2022-12-19T07:57:01.493Z,11.90
2022-12-19T07:59:32.209Z,11.93
2022-12-19T08:01:59.954Z,11.95
2022-12-19T08:04:26.495Z,11.98
2022-12-19T08:06:52.953Z,11.99
2022-12-19T08:09:19.453Z,12.00
2022-12-19T08:11:45.995Z,12.02
2022-12-19T08:14:12.446Z,12.04
2022-12-19T08:17:10.815Z,12.04
2022-12-19T08:19:27.649Z,12.05
2022-12-19T08:21:54.312Z,12.04
2022-12-19T08:24:20.807Z,12.05
2022-12-19T08:26:47.895Z,12.06
2022-12-19T08:29:14.479Z,12.07
2022-12-19T08:31:41.058Z,12.10
2022-12-19T08:34:07.533Z,12.11
2022-12-19T08:36:34.019Z,12.11
2022-12-19T08:39:00.501Z,12.11
2022-12-19T08:41:26.964Z,12.13
2022-12-19T08:43:53.758Z,12.14
2022-12-19T08:46:21.197Z,12.14
2022-12-19T08:48:47.928Z,12.13
2022-12-19T08:51:15.605Z,12.16
2022-12-19T08:53:43.918Z,12.17
2022-12-19T08:56:13.944Z,12.13
2022-12-19T08:58:40.877Z,12.19
2022-12-19T09:01:10.946Z,12.14
2022-12-19T09:04:03.887Z,12.20
2022-12-19T09:06:24.411Z,12.21
2022-12-19T09:08:51.562Z,12.17
2022-12-19T09:11:20.587Z,12.22
2022-12-19T09:13:48.060Z,12.22
2022-12-19T09:16:15.880Z,12.21
2022-12-19T09:18:48.438Z,12.22
2022-12-19T09:21:16.720Z,12.21
2022-12-19T09:23:47.205Z,12.22
2022-12-19T09:26:15.244Z,12.23
2022-12-19T09:28:41.962Z,12.25
2022-12-19T09:31:14.249Z,12.25
2022-12-19T09:33:43.709Z,12.27
2022-12-19T09:36:15.145Z,12.27
2022-12-19T09:38:42.459Z,12.29
2022-12-19T09:41:20.994Z,12.29
2022-12-19T09:43:47.396Z,12.30
2022-12-19T09:46:25.150Z,12.29
2022-12-19T09:48:55.535Z,12.31
2022-12-19T09:51:35.346Z,12.32
2022-12-19T09:54:12.046Z,12.28
2022-12-19T09:56:46.157Z,12.28
2022-12-19T09:59:19.049Z,12.33
2022-12-19T10:02:16.673Z,12.33
2022-12-19T10:04:52.180Z,12.33
2022-12-19T10:08:01.298Z,12.35
2022-12-19T10:12:36.266Z,12.35
2022-12-19T10:13:30.526Z,12.32
2022-12-19T10:16:12.260Z,12.38
2022-12-19T10:18:52.678Z,12.39
2022-12-19T10:22:16.431Z,12.41
2022-12-19T10:24:35.410Z,12.42
2022-12-19T10:27:15.665Z,12.44
2022-12-19T10:29:51.227Z,12.47
2022-12-19T10:32:36.222Z,12.49
2022-12-19T10:35:13.177Z,12.46
2022-12-19T10:37:49.726Z,12.53
2022-12-19T10:40:29.071Z,12.58
2022-12-19T10:42:58.443Z,12.60
2022-12-19T10:45:41.716Z,12.59
2022-12-19T10:48:18.110Z,12.62
2022-12-19T10:50:46.501Z,12.70
2022-12-19T10:53:14.497Z,12.73
2022-12-19T10:55:50.094Z,12.75
2022-12-19T10:58:25.977Z,12.70
2022-12-19T11:01:01.709Z,12.71
2022-12-19T11:03:28.718Z,12.77
2022-12-19T11:05:58.707Z,12.75
2022-12-19T11:08:35.693Z,12.79
2022-12-19T11:13:11.259Z,12.78
2022-12-19T11:19:22.143Z,12.79
2022-12-19T11:22:56.246Z,12.78
2022-12-19T11:29:32.143Z,12.71
2022-12-19T11:29:33.659Z,12.71
2022-12-19T11:29:42.672Z,12.78
2022-12-19T11:29:55.170Z,12.75
2022-12-19T11:34:23.856Z,12.67
2022-12-19T11:37:16.919Z,12.72
2022-12-19T11:39:52.982Z,12.73
2022-12-19T11:42:37.723Z,12.73
2022-12-19T11:45:22.594Z,12.73
2022-12-19T11:48:05.311Z,12.67
2022-12-19T11:50:52.325Z,12.72
2022-12-19T11:53:32.468Z,12.78
2022-12-19T11:56:05.274Z,12.79
2022-12-19T11:58:49.592Z,12.73
2022-12-19T12:01:44.046Z,12.77
2022-12-19T12:04:48.743Z,12.79
2022-12-19T12:07:25.057Z,12.81
2022-12-19T12:15:16.306Z,12.82
2022-12-19T12:22:04.217Z,12.81
2022-12-19T12:22:27.817Z,12.80
2022-12-19T12:31:21.870Z,12.79
2022-12-19T12:31:39.144Z,12.75
2022-12-19T12:31:49.076Z,12.73
2022-12-19T12:31:58.651Z,12.71
2022-12-19T12:35:41.444Z,12.68
2022-12-19T12:38:23.856Z,12.68
2022-12-19T12:41:06.028Z,12.65
2022-12-19T12:43:50.965Z,12.68
2022-12-19T12:46:24.189Z,12.68
2022-12-19T12:48:56.912Z,12.79
2022-12-19T12:51:25.527Z,12.82
2022-12-19T12:54:01.817Z,12.88
2022-12-19T12:56:28.349Z,12.87
2022-12-19T12:58:54.721Z,12.87
2022-12-19T13:01:30.155Z,12.86
2022-12-19T13:03:58.781Z,12.86
2022-12-19T13:06:45.002Z,12.87
2022-12-19T13:09:11.399Z,12.84
2022-12-19T13:11:45.451Z,12.83
2022-12-19T13:14:42.230Z,12.82
2022-12-19T13:17:34.903Z,12.82
2022-12-19T13:20:04.142Z,12.81
2022-12-19T13:22:30.559Z,12.82
2022-12-19T13:24:59.223Z,12.81
2022-12-19T13:27:25.666Z,12.81
2022-12-19T13:30:16.403Z,12.80
2022-12-19T13:32:42.825Z,12.80
2022-12-19T13:37:04.507Z,12.80
2022-12-19T13:39:54.779Z,12.75
2022-12-19T13:41:03.010Z,12.73
2022-12-19T13:43:42.382Z,12.71
2022-12-19T13:46:34.551Z,12.69
2022-12-19T13:49:12.475Z,12.74
2022-12-19T13:51:52.828Z,12.68
2022-12-19T13:54:28.005Z,12.74
2022-12-19T13:56:59.054Z,12.73
2022-12-19T13:59:36.329Z,12.70
2022-12-19T14:02:13.720Z,12.72
2022-12-19T14:04:40.905Z,12.71
2022-12-19T14:07:37.929Z,12.67
2022-12-19T14:11:34.533Z,12.72
2022-12-19T14:13:56.511Z,12.67
2022-12-19T14:15:51.957Z,12.71
2022-12-19T14:18:45.418Z,12.73
2022-12-19T14:22:11.104Z,12.74
2022-12-19T14:24:09.990Z,12.74
2022-12-19T14:28:18.953Z,12.69
2022-12-19T14:30:27.942Z,12.71
2022-12-19T14:33:47.020Z,12.71
2022-12-19T14:36:10.401Z,12.68
2022-12-19T14:39:22.431Z,12.73
2022-12-19T14:41:07.340Z,12.73
2022-12-19T14:45:58.973Z,12.74
2022-12-19T14:52:51.018Z,12.74
2022-12-19T14:54:01.421Z,12.73
2022-12-19T14:54:28.082Z,12.76
2022-12-19T14:56:16.725Z,12.75
2022-12-19T14:58:52.380Z,12.70
2022-12-19T15:01:25.119Z,12.70
2022-12-19T15:04:47.396Z,12.71
2022-12-19T15:07:09.861Z,12.76
2022-12-19T15:11:07.603Z,12.71
2022-12-19T15:14:46.617Z,12.75
2022-12-19T15:15:55.937Z,12.75
2022-12-19T15:18:37.003Z,12.75
2022-12-19T15:21:06.307Z,12.70
2022-12-19T15:23:32.896Z,12.72
2022-12-19T15:26:07.722Z,12.76
2022-12-19T15:28:41.336Z,12.71
2022-12-19T15:31:19.517Z,12.77
2022-12-19T15:34:14.223Z,12.77
2022-12-19T15:36:32.480Z,12.79
2022-12-19T15:38:59.189Z,12.83
2022-12-19T15:41:25.763Z,12.82
2022-12-19T15:44:03.795Z,12.79
2022-12-19T15:46:31.610Z,12.80
2022-12-19T15:48:58.078Z,12.81
2022-12-19T15:51:24.650Z,12.82
2022-12-19T15:53:51.090Z,12.84
2022-12-19T15:56:27.087Z,12.79
2022-12-19T15:58:56.041Z,12.78
2022-12-19T16:01:23.461Z,12.85
2022-12-19T16:03:50.930Z,12.87
2022-12-19T16:06:18.253Z,12.87
2022-12-19T16:08:44.791Z,12.85
2022-12-19T16:11:20.004Z,12.84
2022-12-19T16:13:54.259Z,12.83
2022-12-19T16:16:20.971Z,12.88
2022-12-19T16:18:47.436Z,12.88
2022-12-19T16:21:34.388Z,12.87
2022-12-19T16:24:01.177Z,12.89
2022-12-19T16:26:34.386Z,12.88
2022-12-19T16:29:01.620Z,12.91
2022-12-19T16:31:28.318Z,12.89
2022-12-19T16:33:54.967Z,12.90
2022-12-19T16:36:21.952Z,12.88
2022-12-19T16:38:48.493Z,12.88
2022-12-19T16:41:19.147Z,12.83
2022-12-19T16:43:45.923Z,12.86
2022-12-19T16:46:19.377Z,12.79
2022-12-19T16:48:46.491Z,12.86
2022-12-19T16:51:21.593Z,12.84
2022-12-19T16:53:49.861Z,12.87
2022-12-19T16:56:32.656Z,12.82
2022-12-19T16:59:02.173Z,12.86
2022-12-19T17:01:28.864Z,12.84
2022-12-19T17:03:55.617Z,12.86
2022-12-19T17:06:23.474Z,12.85
2022-12-19T17:08:49.972Z,12.83
2022-12-19T17:11:20.768Z,12.82
2022-12-19T17:14:02.781Z,12.82
2022-12-19T17:16:30.236Z,12.90
2022-12-19T17:18:57.954Z,12.88
2022-12-19T17:21:24.441Z,12.91
2022-12-19T17:23:51.586Z,12.96
2022-12-19T17:26:18.584Z,12.96
2022-12-19T17:28:45.408Z,12.96
2022-12-19T17:31:21.117Z,12.95
2022-12-19T17:33:47.849Z,12.96
2022-12-19T17:36:18.416Z,12.96
2022-12-19T17:38:49.647Z,12.96
2022-12-19T17:41:16.328Z,12.95
2022-12-19T17:43:43.478Z,12.96
2022-12-19T17:46:21.246Z,12.95
2022-12-19T17:48:50.895Z,12.97
2022-12-19T17:51:20.127Z,12.98
2022-12-19T17:53:46.731Z,12.99
2022-12-19T17:56:18.395Z,12.97
2022-12-19T17:58:44.873Z,13.01
2022-12-19T18:01:22.048Z,13.02
2022-12-19T18:03:50.745Z,13.04
2022-12-19T18:06:17.434Z,13.04
2022-12-19T18:08:44.623Z,13.02
2022-12-19T18:11:21.518Z,13.06
2022-12-19T18:13:48.609Z,13.05
2022-12-19T18:16:18.695Z,13.07
2022-12-19T18:18:45.686Z,13.04
2022-12-19T18:21:15.447Z,13.05
2022-12-19T18:23:42.741Z,13.05
2022-12-19T18:26:10.998Z,12.99
2022-12-19T18:28:38.635Z,13.07
2022-12-19T18:31:23.560Z,13.00
2022-12-19T18:33:50.751Z,13.06
2022-12-19T18:36:20.394Z,13.05
2022-12-19T18:38:48.179Z,13.05
2022-12-19T18:41:16.579Z,13.02
2022-12-19T18:43:43.856Z,13.06
2022-12-19T18:46:19.178Z,13.06
2022-12-19T18:48:45.867Z,13.05
2022-12-19T18:51:17.487Z,13.07
2022-12-19T18:53:45.252Z,13.09
2022-12-19T18:56:12.094Z,13.07
2022-12-19T18:58:38.997Z,13.09
2022-12-19T19:01:07.476Z,13.09
2022-12-19T19:03:41.606Z,13.10
2022-12-19T19:06:20.293Z,13.11
2022-12-19T19:08:47.014Z,13.13
2022-12-19T19:11:25.992Z,13.15
2022-12-19T19:13:53.239Z,13.15
2022-12-19T19:16:22.080Z,13.17
2022-12-19T19:18:56.480Z,13.17
2022-12-19T19:21:27.354Z,13.16
2022-12-19T19:24:00.213Z,13.12
2022-12-19T19:26:26.742Z,13.16
2022-12-19T19:28:53.182Z,13.15
2022-12-19T19:31:23.772Z,13.18
2022-12-19T19:33:55.710Z,13.12
2022-12-19T19:36:25.493Z,13.12
2022-12-19T19:38:54.485Z,13.15
2022-12-19T19:41:20.934Z,13.19
2022-12-19T19:43:47.388Z,13.21
2022-12-19T19:46:13.852Z,13.18
2022-12-19T19:48:40.350Z,13.20
2022-12-19T19:51:06.874Z,13.19
2022-12-19T19:53:33.336Z,13.20
2022-12-19T19:56:00.888Z,13.18
2022-12-19T19:58:29.011Z,13.16
2022-12-19T20:00:55.709Z,13.21
2022-12-19T20:03:23.835Z,13.24
2022-12-19T20:05:50.672Z,13.24
2022-12-19T20:08:17.293Z,13.26
2022-12-19T20:10:43.771Z,13.26
2022-12-19T20:13:10.364Z,13.26
2022-12-19T20:15:37.004Z,13.24
2022-12-19T20:18:03.511Z,13.25
2022-12-19T20:20:29.973Z,13.24
2022-12-19T20:22:56.446Z,13.21
2022-12-19T20:25:22.892Z,13.21
2022-12-19T20:27:49.392Z,13.22
2022-12-19T20:30:16.030Z,13.22
2022-12-19T20:32:42.549Z,13.18
2022-12-19T20:35:14.522Z,13.19
2022-12-19T20:37:42.046Z,13.18
2022-12-19T20:40:09.360Z,13.15
2022-12-19T20:42:35.906Z,13.12
2022-12-19T20:45:02.463Z,13.11
2022-12-19T20:47:28.947Z,13.09
2022-12-19T20:49:55.391Z,13.08
2022-12-19T20:52:21.862Z,13.05
2022-12-19T20:54:48.316Z,13.06
2022-12-19T20:57:14.780Z,13.05
2022-12-19T20:59:41.243Z,13.06
2022-12-19T21:02:07.952Z,13.05
2022-12-19T21:04:34.783Z,13.06
2022-12-19T21:07:01.386Z,13.06
2022-12-19T21:09:27.874Z,13.05
2022-12-19T21:11:54.351Z,13.03
2022-12-19T21:14:20.773Z,13.01
2022-12-19T21:16:47.388Z,12.98
2022-12-19T21:19:14.027Z,12.97
2022-12-19T21:21:40.607Z,12.96
2022-12-19T21:24:07.288Z,12.96
2022-12-19T21:26:33.757Z,12.96
2022-12-19T21:29:00.240Z,12.94
2022-12-19T21:31:29.604Z,12.90
2022-12-19T21:34:00.732Z,12.95
2022-12-19T21:36:28.541Z,12.93
2022-12-19T21:38:57.145Z,12.89
2022-12-19T21:41:23.789Z,12.94
2022-12-19T21:43:52.720Z,12.86
2022-12-19T21:46:21.955Z,12.91
2022-12-19T21:48:50.160Z,12.84
2022-12-19T21:51:19.803Z,12.82
2022-12-19T21:53:46.792Z,12.87
2022-12-19T21:56:18.925Z,12.87
2022-12-19T21:58:45.457Z,12.90
2022-12-19T22:01:13.390Z,12.92
2022-12-19T22:03:40.714Z,12.93
2022-12-19T22:06:08.544Z,12.96
2022-12-19T22:08:36.453Z,12.97
2022-12-19T22:11:02.977Z,12.99
2022-12-19T22:13:29.581Z,13.00
2022-12-19T22:16:00.755Z,13.02
2022-12-19T22:18:27.332Z,13.03
2022-12-19T22:20:57.721Z,13.03
2022-12-19T22:23:24.253Z,13.02
2022-12-19T22:26:00.129Z,12.96
2022-12-19T22:28:28.396Z,13.01
2022-12-19T22:30:54.827Z,13.06
2022-12-19T22:33:21.273Z,13.07
2022-12-19T22:35:47.732Z,13.08
2022-12-19T22:38:14.177Z,13.07
2022-12-19T22:40:40.641Z,13.09
2022-12-19T22:43:07.127Z,13.07
2022-12-19T22:45:33.714Z,13.07
2022-12-19T22:48:00.196Z,13.09
2022-12-19T22:50:26.666Z,13.12
2022-12-19T22:52:53.212Z,13.14
2022-12-19T22:55:19.698Z,13.13
2022-12-19T22:57:46.140Z,13.15
2022-12-19T23:00:14.302Z,13.15
2022-12-19T23:02:41.999Z,13.16
2022-12-19T23:05:08.803Z,13.16
2022-12-19T23:07:35.941Z,13.18
2022-12-19T23:10:02.517Z,13.15
2022-12-19T23:12:29.180Z,13.20
2022-12-19T23:14:55.610Z,13.19
2022-12-19T23:17:22.086Z,13.21
2022-12-19T23:19:48.584Z,13.20
2022-12-19T23:22:14.972Z,13.25
2022-12-19T23:24:41.659Z,13.25
2022-12-19T23:27:08.115Z,13.24
2022-12-19T23:29:34.575Z,13.24
2022-12-19T23:32:01.038Z,13.26
2022-12-19T23:34:27.502Z,13.25
2022-12-19T23:37:10.233Z,13.24
2022-12-19T23:39:37.509Z,13.28
2022-12-19T23:42:04.036Z,13.30
2022-12-19T23:44:30.725Z,13.30
2022-12-19T23:47:02.979Z,13.29
2022-12-19T23:49:30.785Z,13.33
2022-12-19T23:51:57.225Z,13.31
2022-12-19T23:54:23.672Z,13.32
2022-12-19T23:56:50.142Z,13.28
2022-12-19T23:59:16.615Z,13.32
